Time;durP1;ratioP1;P1;durP2;ratioP2;P2;SDS_P1;SDS_P2;PMS_P1;PMS_P2;Temp;Humidity;BMP_temperature;BMP_pressure;BME280_temperature;BME280_humidity;BME280_pressure;Samples;Min_cycle;Max_cycle;Signal;HPM_P1;HPM_P2
2022/11/01 00:01:05;;;;;;;0.00;0.00;;;;;;;15.10;98.26;100833.22;5020610;28;20690;-74
2022/11/01 00:03:31;;;;;;;0.10;0.10;;;;;;;15.25;98.07;100826.31;4993049;28;20057;-76
2022/11/01 00:05:56;;;;;;;0.10;0.10;;;;;;;15.15;98.33;100814.69;5028947;28;20106;-75
2022/11/01 00:08:21;;;;;;;0.10;0.10;;;;;;;15.06;98.17;100813.75;5006900;28;20075;-74
2022/11/01 00:10:47;;;;;;;0.10;0.10;;;;;;;15.10;99.33;100823.25;5007095;28;20432;-73
2022/11/01 00:13:12;;;;;;;0.10;0.10;;;;;;;14.87;100.00;100797.59;5020336;28;20115;-77
2022/11/01 00:15:37;;;;;;;0.10;0.10;;;;;;;14.83;100.00;100786.25;5002030;28;20108;-75
2022/11/01 00:18:02;;;;;;;0.10;0.10;;;;;;;15.21;100.00;100816.81;5025456;28;20358;-74
2022/11/01 00:20:28;;;;;;;0.10;0.10;;;;;;;14.97;100.00;100795.72;5024992;28;20523;-75
2022/11/01 00:22:53;;;;;;;0.10;0.10;;;;;;;14.98;100.00;100803.66;5020885;28;20037;-71
2022/11/01 00:25:18;;;;;;;0.10;0.10;;;;;;;14.75;100.00;100796.94;5001094;28;20495;-74
2022/11/01 00:27:44;;;;;;;0.10;0.10;;;;;;;14.96;100.00;100791.31;5020799;28;20040;-73
2022/11/01 00:30:09;;;;;;;0.10;0.10;;;;;;;14.99;100.00;100804.53;5013711;28;20029;-73
2022/11/01 00:32:35;;;;;;;0.10;0.10;;;;;;;14.94;100.00;100806.81;5021354;28;20048;-73
2022/11/01 00:35:00;;;;;;;0.10;0.10;;;;;;;14.73;100.00;100809.75;5021113;28;20072;-73
2022/11/01 00:37:27;;;;;;;0.00;0.00;;;;;;;14.68;100.00;100797.56;5025517;28;20037;-74
2022/11/01 00:39:53;;;;;;;0.10;0.10;;;;;;;14.48;100.00;100790.44;5023991;28;20033;-72
2022/11/01 00:42:18;;;;;;;0.10;0.10;;;;;;;14.88;100.00;100796.59;5004389;28;20083;-76
2022/11/01 00:44:43;;;;;;;0.10;0.10;;;;;;;14.75;100.00;100767.22;5006106;28;20060;-75
2022/11/01 00:47:09;;;;;;;0.10;0.10;;;;;;;14.68;100.00;100761.53;5006774;28;20029;-74
2022/11/01 00:49:34;;;;;;;0.10;0.10;;;;;;;14.70;100.00;100773.06;5023043;28;20493;-75
2022/11/01 00:51:59;;;;;;;0.10;0.10;;;;;;;14.72;100.00;100779.19;5022472;28;20049;-74
2022/11/01 00:54:24;;;;;;;0.10;0.10;;;;;;;14.54;100.00;100760.16;5021031;28;20021;-74
2022/11/01 00:56:50;;;;;;;0.00;0.00;;;;;;;14.60;100.00;100759.56;5030276;28;20059;-77
2022/11/01 00:59:15;;;;;;;0.00;0.00;;;;;;;14.79;100.00;100777.59;5019050;28;20524;-70
2022/11/01 01:01:40;;;;;;;0.10;0.10;;;;;;;14.52;100.00;100741.41;5019918;28;20047;-75
2022/11/01 01:04:06;;;;;;;0.10;0.10;;;;;;;14.67;100.00;100776.91;5003900;28;20473;-74
2022/11/01 01:06:31;;;;;;;0.10;0.10;;;;;;;14.89;100.00;100782.94;5014751;28;20156;-75
2022/11/01 01:08:58;;;;;;;0.10;0.10;;;;;;;14.86;100.00;100761.63;5007297;28;20029;-77
2022/11/01 01:11:24;;;;;;;0.10;0.10;;;;;;;14.82;100.00;100771.91;5015084;28;20116;-75
2022/11/01 01:13:49;;;;;;;0.10;0.10;;;;;;;14.95;100.00;100768.84;5004707;28;20052;-74
2022/11/01 01:16:14;;;;;;;0.00;0.00;;;;;;;14.92;100.00;100735.84;5013834;28;20482;-73
2022/11/01 01:18:40;;;;;;;0.10;0.10;;;;;;;14.88;100.00;100758.75;4980291;28;20041;-75
2022/11/01 01:21:05;;;;;;;0.10;0.10;;;;;;;14.84;100.00;100742.84;5003640;28;20052;-74
2022/11/01 01:23:31;;;;;;;0.10;0.10;;;;;;;14.76;100.00;100737.34;5009637;28;20033;-74
2022/11/01 01:25:56;;;;;;;0.10;0.10;;;;;;;14.92;100.00;100758.31;5002170;28;20469;-73
2022/11/01 01:28:21;;;;;;;0.10;0.10;;;;;;;14.84;100.00;100756.34;5021480;28;20016;-75
2022/11/01 01:30:47;;;;;;;0.10;0.10;;;;;;;15.00;100.00;100742.19;5006621;28;20120;-73
2022/11/01 01:33:12;;;;;;;0.10;0.10;;;;;;;15.06;100.00;100721.81;5012061;28;20048;-74
2022/11/01 01:35:37;;;;;;;0.10;0.10;;;;;;;15.08;100.00;100748.69;4999824;28;20032;-76
2022/11/01 01:38:03;;;;;;;0.10;0.10;;;;;;;15.17;100.00;100757.75;5003577;28;20025;-75
2022/11/01 01:40:28;;;;;;;0.05;0.05;;;;;;;15.20;100.00;100755.59;5005857;28;20389;-73
2022/11/01 01:42:54;;;;;;;0.05;0.05;;;;;;;15.09;100.00;100753.97;5003403;28;20102;-73
2022/11/01 01:45:28;;;;;;;0.10;0.10;;;;;;;15.14;100.00;100754.34;5029894;28;20021;-75
2022/11/01 01:47:55;;;;;;;0.10;0.10;;;;;;;15.30;100.00;100756.38;5016716;28;20482;-76
2022/11/01 01:50:24;;;;;;;0.10;0.10;;;;;;;15.25;100.00;100752.44;5024741;28;20017;-74
2022/11/01 01:53:12;;;;;;;0.10;0.10;;;;;;;15.19;100.00;100755.75;4999022;28;20415;-76
2022/11/01 01:55:48;;;;;;;0.10;0.10;;;;;;;15.13;100.00;100746.41;5000453;28;20457;-74
2022/11/01 01:58:17;;;;;;;0.10;0.10;;;;;;;15.40;100.00;100748.19;4998116;28;20990;-73
2022/11/01 02:00:42;;;;;;;0.10;0.10;;;;;;;15.45;100.00;100745.03;5020851;28;20557;-75
2022/11/01 02:03:08;;;;;;;0.10;0.10;;;;;;;15.33;100.00;100751.66;5001639;28;20033;-74
2022/11/01 02:05:39;;;;;;;0.00;0.00;;;;;;;15.28;100.00;100758.38;5001518;28;20036;-74
2022/11/01 02:08:05;;;;;;;0.10;0.10;;;;;;;15.24;100.00;100756.97;4998103;28;20029;-76
2022/11/01 02:10:31;;;;;;;0.10;0.10;;;;;;;15.43;100.00;100726.25;5015916;28;20529;-73
2022/11/01 02:12:57;;;;;;;0.10;0.10;;;;;;;15.39;100.00;100757.31;4999139;28;20032;-73
2022/11/01 02:15:25;;;;;;;0.03;0.03;;;;;;;15.57;100.00;100721.31;4998434;28;20026;-75
2022/11/01 02:18:01;;;;;;;0.10;0.10;;;;;;;15.99;100.00;100741.50;5003204;28;20033;-76
2022/11/01 02:20:38;;;;;;;0.10;0.10;;;;;;;15.74;100.00;100754.78;5002578;28;20029;-76
2022/11/01 02:23:30;;;;;;;0.10;0.10;;;;;;;15.81;100.00;100755.00;5023114;28;20163;-72
2022/11/01 02:26:06;;;;;;;0.10;0.10;;;;;;;15.71;100.00;100745.09;5023108;28;20151;-78
2022/11/01 02:29:15;;;;;;;0.10;0.10;;;;;;;15.86;100.00;100736.47;5018183;28;20029;-74
2022/11/01 02:32:01;;;;;;;0.10;0.10;;;;;;;16.09;100.00;100763.06;5020074;28;20034;-74
2022/11/01 02:34:34;;;;;;;0.10;0.10;;;;;;;16.00;100.00;100760.28;5004741;28;20029;-72
2022/11/01 02:37:22;;;;;;;0.10;0.10;;;;;;;15.95;100.00;100754.47;5020726;28;20156;-72
2022/11/01 02:39:51;;;;;;;0.10;0.10;;;;;;;16.11;100.00;100748.34;5000015;28;20033;-73
2022/11/01 02:42:20;;;;;;;0.10;0.10;;;;;;;16.07;100.00;100765.91;5022468;28;20026;-75
2022/11/01 02:44:55;;;;;;;0.00;0.00;;;;;;;16.10;100.00;100732.25;5006834;28;20476;-76
2022/11/01 02:47:21;;;;;;;0.10;0.10;;;;;;;15.94;100.00;100735.69;5000149;28;20029;-72
2022/11/01 02:49:50;;;;;;;0.10;0.10;;;;;;;16.02;100.00;100744.72;5006943;28;20037;-74
2022/11/01 02:52:19;;;;;;;0.10;0.10;;;;;;;16.06;100.00;100747.94;5000236;28;20377;-74
2022/11/01 02:54:49;;;;;;;0.00;0.00;;;;;;;16.10;100.00;100754.75;5004006;28;20029;-73
2022/11/01 02:57:17;;;;;;;0.10;0.10;;;;;;;16.02;100.00;100755.56;5021434;28;20561;-73
2022/11/01 02:59:46;;;;;;;0.10;0.10;;;;;;;16.08;100.00;100756.78;5026593;28;20034;-73
2022/11/01 03:02:16;;;;;;;0.00;0.00;;;;;;;16.11;100.00;100750.19;5024004;28;20033;-73
2022/11/01 03:04:41;;;;;;;0.00;0.00;;;;;;;16.01;100.00;100761.13;5017463;28;20034;-73
2022/11/01 03:07:09;;;;;;;0.10;0.10;;;;;;;16.06;100.00;100749.81;5004202;28;20052;-73
2022/11/01 03:09:35;;;;;;;0.00;0.00;;;;;;;16.28;100.00;100749.28;5004178;28;20038;-73
2022/11/01 03:12:03;;;;;;;0.10;0.10;;;;;;;16.23;100.00;100753.50;5006331;28;20022;-77
2022/11/01 03:14:54;;;;;;;0.10;0.10;;;;;;;15.97;100.00;100744.34;5000612;28;20072;-77
2022/11/01 03:17:31;;;;;;;0.10;0.10;;;;;;;16.17;100.00;100772.09;5002687;28;20140;-72
2022/11/01 03:20:12;;;;;;;0.10;0.10;;;;;;;16.00;100.00;100754.84;5004905;28;20037;-74
2022/11/01 03:22:44;;;;;;;0.10;0.10;;;;;;;16.00;100.00;100740.47;5003671;28;20022;-73
2022/11/01 03:28:05;;;;;;;0.13;0.10;;;;;;;16.10;100.00;100776.41;5004808;28;20041;-77
2022/11/01 03:30:32;;;;;;;0.10;0.10;;;;;;;16.02;100.00;100763.69;5003271;28;20065;-78
2022/11/01 03:32:58;;;;;;;0.00;0.00;;;;;;;15.84;100.00;100763.66;5013462;28;20131;-72
2022/11/01 03:35:26;;;;;;;0.10;0.10;;;;;;;16.10;100.00;100783.72;5035208;28;20025;-78
2022/11/01 03:37:54;;;;;;;0.03;0.03;;;;;;;16.04;100.00;100790.59;5003289;28;20116;-79
2022/11/01 03:40:22;;;;;;;0.00;0.00;;;;;;;16.00;100.00;100784.63;4986730;28;20033;-74
2022/11/01 03:42:49;;;;;;;0.10;0.10;;;;;;;16.10;100.00;100789.97;5005156;28;20040;-76
2022/11/01 03:45:19;;;;;;;0.00;0.00;;;;;;;16.09;100.00;100790.97;5010694;28;20033;-75
2022/11/01 03:47:45;;;;;;;0.10;0.10;;;;;;;16.07;100.00;100792.97;5014979;28;20024;-73
2022/11/01 03:50:19;;;;;;;0.10;0.10;;;;;;;16.11;100.00;100799.78;5032681;28;20071;-74
2022/11/01 03:52:45;;;;;;;0.00;0.00;;;;;;;15.98;100.00;100791.22;5002286;28;20037;-72
2022/11/01 03:55:17;;;;;;;0.05;0.05;;;;;;;16.25;100.00;100817.34;5008253;28;20087;-77
2022/11/01 03:57:56;;;;;;;0.00;0.00;;;;;;;16.00;100.00;100805.47;5012361;28;20033;-76
2022/11/01 04:00:23;;;;;;;0.00;0.00;;;;;;;16.14;100.00;100823.84;4995543;28;20021;-72
2022/11/01 04:02:49;;;;;;;0.00;0.00;;;;;;;16.09;99.63;100833.47;4986236;28;20033;-75
2022/11/01 04:05:15;;;;;;;0.03;0.03;;;;;;;15.92;100.00;100827.03;5004376;28;20045;-78
2022/11/01 04:07:41;;;;;;;0.00;0.00;;;;;;;15.98;99.05;100837.25;5005724;28;20424;-73
2022/11/01 04:10:06;;;;;;;0.03;0.03;;;;;;;15.88;98.51;100831.94;5005144;28;20029;-75
2022/11/01 04:12:32;;;;;;;0.00;0.00;;;;;;;15.97;93.27;100855.34;5011075;28;20523;-76
2022/11/01 04:20:34;;;;;;;0.00;0.00;;;;;;;15.73;90.05;100872.19;5027139;28;20040;-76
2022/11/01 04:23:00;;;;;;;0.10;0.10;;;;;;;15.69;85.74;100884.31;5020171;28;20452;-74
2022/11/01 04:25:26;;;;;;;0.00;0.00;;;;;;;15.40;83.54;100859.09;5005479;28;20425;-73
2022/11/01 04:27:51;;;;;;;0.00;0.00;;;;;;;15.54;83.27;100894.78;4991088;28;20357;-75
2022/11/01 04:30:16;;;;;;;0.05;0.05;;;;;;;15.30;82.44;100882.66;5026272;28;20030;-78
2022/11/01 04:32:48;;;;;;;0.00;0.00;;;;;;;15.09;81.79;100882.91;5017037;28;20087;-75
2022/11/01 04:35:13;;;;;;;0.03;0.03;;;;;;;15.18;79.26;100914.47;5010258;28;20052;-73
2022/11/01 04:37:39;;;;;;;0.10;0.10;;;;;;;15.20;79.45;100917.88;5027774;28;20057;-72
2022/11/01 04:40:14;;;;;;;0.00;0.00;;;;;;;15.05;79.62;100931.03;5027472;28;20037;-73
2022/11/01 04:42:40;;;;;;;0.00;0.00;;;;;;;14.89;77.95;100911.84;5011359;28;20033;-76
2022/11/01 04:45:07;;;;;;;0.00;0.00;;;;;;;14.99;77.73;100937.84;5011627;28;20033;-75
2022/11/01 04:47:32;;;;;;;0.00;0.00;;;;;;;14.97;78.23;100941.69;5008526;28;20038;-76
2022/11/01 04:49:57;;;;;;;0.10;0.10;;;;;;;14.71;79.18;100934.22;5014276;28;20025;-73
2022/11/01 04:52:23;;;;;;;0.00;0.00;;;;;;;14.74;79.25;100949.28;5007415;28;20040;-78
2022/11/01 04:54:48;;;;;;;0.00;0.00;;;;;;;14.60;80.06;100943.28;5014832;28;20455;-75
2022/11/01 04:57:23;;;;;;;0.10;0.10;;;;;;;14.55;78.62;100945.56;5002794;28;20029;-84
2022/11/01 04:59:52;;;;;;;0.00;0.00;;;;;;;14.65;79.34;100973.44;5010647;28;20079;-78
2022/11/01 05:02:18;;;;;;;0.00;0.00;;;;;;;14.40;79.97;100973.03;5002698;28;20069;-79
2022/11/01 05:04:43;;;;;;;0.10;0.10;;;;;;;14.54;79.97;100987.97;5005456;28;20030;-76
2022/11/01 05:07:09;;;;;;;0.00;0.00;;;;;;;14.34;81.43;100981.69;5004654;28;20029;-77
2022/11/01 05:09:34;;;;;;;0.10;0.10;;;;;;;14.18;82.32;100998.44;5000806;28;20353;-83
2022/11/01 05:11:59;;;;;;;0.00;0.00;;;;;;;14.09;81.88;101002.81;4987329;28;20072;-74
2022/11/01 05:14:24;;;;;;;0.05;0.05;;;;;;;14.14;82.21;101002.41;5033898;28;20382;-76
2022/11/01 05:16:50;;;;;;;0.10;0.10;;;;;;;14.00;82.73;101002.81;4989913;28;20060;-76
2022/11/01 05:19:15;;;;;;;0.00;0.00;;;;;;;13.96;82.75;101007.59;5004441;28;20026;-75
2022/11/01 05:21:40;;;;;;;0.00;0.00;;;;;;;13.87;83.11;101014.69;5009297;28;20475;-76
2022/11/01 05:24:06;;;;;;;0.00;0.00;;;;;;;14.02;83.11;101035.91;5012815;28;20055;-73
2022/11/01 05:26:32;;;;;;;0.05;0.05;;;;;;;13.81;82.79;101034.13;5007398;28;20037;-77
2022/11/01 05:28:57;;;;;;;0.10;0.10;;;;;;;13.95;82.53;101028.34;5005257;28;20763;-78
2022/11/01 05:31:22;;;;;;;0.10;0.10;;;;;;;13.76;82.16;101036.38;4996184;28;20425;-75
2022/11/01 05:33:48;;;;;;;0.10;0.10;;;;;;;13.72;81.02;101049.28;5026525;28;20044;-75
2022/11/01 05:36:13;;;;;;;0.10;0.10;;;;;;;13.47;80.00;101013.66;5006711;28;20072;-76
2022/11/01 05:38:38;;;;;;;0.00;0.00;;;;;;;13.68;79.34;101050.53;5024489;28;20059;-76
2022/11/01 05:41:04;;;;;;;0.00;0.00;;;;;;;13.69;77.12;101051.41;5029211;28;20034;-76
2022/11/01 05:43:29;;;;;;;0.10;0.10;;;;;;;13.68;76.96;101049.69;5022092;28;20436;-76
2022/11/01 05:45:54;;;;;;;0.10;0.10;;;;;;;13.64;76.85;101068.84;5024423;28;20519;-76
2022/11/01 05:48:20;;;;;;;0.00;0.00;;;;;;;13.35;78.02;101033.59;5001600;28;20025;-79
2022/11/01 05:50:45;;;;;;;0.10;0.10;;;;;;;13.26;77.94;101048.72;5011948;28;20053;-74
2022/11/01 05:53:11;;;;;;;0.10;0.10;;;;;;;13.32;78.36;101042.78;5003159;28;20037;-75
2022/11/01 05:55:38;;;;;;;0.10;0.10;;;;;;;13.33;78.86;101070.63;5005154;28;20037;-80
2022/11/01 05:58:04;;;;;;;0.10;0.10;;;;;;;13.20;80.30;101071.66;5005422;28;20029;-73
2022/11/01 06:00:30;;;;;;;0.10;0.10;;;;;;;13.18;80.54;101070.09;5021546;28;20116;-76
2022/11/01 06:02:58;;;;;;;0.10;0.10;;;;;;;13.15;81.43;101086.53;5007028;28;20512;-77
2022/11/01 06:05:25;;;;;;;0.00;0.00;;;;;;;13.05;82.62;101091.84;5005815;28;20393;-77
2022/11/01 06:07:50;;;;;;;0.10;0.10;;;;;;;13.04;82.41;101063.19;5024371;28;20137;-76
2022/11/01 06:10:16;;;;;;;0.00;0.00;;;;;;;13.07;83.04;101073.72;5010669;28;20571;-76
2022/11/01 06:12:41;;;;;;;0.00;0.00;;;;;;;13.03;83.60;101089.28;5012638;28;20037;-73
2022/11/01 06:15:07;;;;;;;0.00;0.00;;;;;;;13.05;85.08;101097.25;5024193;28;20032;-78
2022/11/01 06:17:32;;;;;;;0.00;0.00;;;;;;;13.20;84.11;101095.09;5028665;28;20481;-82
2022/11/01 06:19:58;;;;;;;0.10;0.10;;;;;;;12.87;85.41;101083.47;4990158;28;20029;-76
2022/11/01 06:22:23;;;;;;;0.00;0.00;;;;;;;12.82;86.29;101081.16;5012768;28;20037;-76
2022/11/01 06:24:48;;;;;;;0.10;0.10;;;;;;;12.95;85.56;101086.38;5007194;28;20037;-76
2022/11/01 06:27:14;;;;;;;0.00;0.00;;;;;;;12.92;85.92;101124.38;5003565;28;20044;-74
2022/11/01 06:29:39;;;;;;;0.00;0.00;;;;;;;12.88;84.25;101141.78;5024145;28;20036;-76
2022/11/01 06:32:04;;;;;;;0.08;0.08;;;;;;;12.88;83.23;101131.84;5038899;28;20029;-72
2022/11/01 06:34:30;;;;;;;0.03;0.03;;;;;;;12.90;81.91;101140.66;4991317;28;20124;-77
2022/11/01 06:36:55;;;;;;;0.10;0.10;;;;;;;13.00;79.35;101129.13;5006505;28;20033;-73
2022/11/01 06:39:21;;;;;;;0.03;0.03;;;;;;;12.86;79.70;101133.78;5007344;28;20033;-74
2022/11/01 06:41:46;;;;;;;0.00;0.00;;;;;;;12.75;80.89;101137.38;5023712;28;20049;-75
2022/11/01 06:44:11;;;;;;;0.00;0.00;;;;;;;13.09;78.62;101130.19;5005355;28;20071;-78
2022/11/01 06:46:37;;;;;;;0.00;0.00;;;;;;;12.77;78.79;101117.53;5016233;28;20484;-74
2022/11/01 06:49:02;;;;;;;0.10;0.10;;;;;;;12.76;80.01;101138.25;5023448;28;20025;-75
2022/11/01 06:51:28;;;;;;;0.00;0.00;;;;;;;12.56;80.78;101129.97;5022831;28;20166;-73
2022/11/01 06:53:53;;;;;;;0.10;0.10;;;;;;;12.89;80.29;101151.56;5023635;28;20489;-73
2022/11/01 06:56:18;;;;;;;0.10;0.10;;;;;;;12.88;80.99;101156.09;5001431;28;20124;-73
2022/11/01 06:58:47;;;;;;;0.10;0.10;;;;;;;12.64;81.52;101158.97;5027704;28;20445;-73
2022/11/01 07:01:12;;;;;;;0.10;0.10;;;;;;;12.58;81.51;101146.00;5021103;28;20496;-74
2022/11/01 07:03:38;;;;;;;0.10;0.10;;;;;;;12.46;82.96;101164.00;5008803;28;20037;-70
2022/11/01 07:06:03;;;;;;;0.10;0.10;;;;;;;12.68;83.01;101176.59;5037754;28;20021;-74
2022/11/01 07:08:28;;;;;;;0.10;0.10;;;;;;;12.51;83.41;101182.50;5028463;28;20032;-75
2022/11/01 07:10:54;;;;;;;0.10;0.10;;;;;;;12.38;84.96;101182.63;5031138;28;20029;-73
2022/11/01 07:13:19;;;;;;;0.00;0.00;;;;;;;12.52;84.50;101198.53;5020313;28;20025;-72
2022/11/01 07:15:45;;;;;;;0.10;0.10;;;;;;;12.44;85.37;101204.56;5007486;28;20037;-76
2022/11/01 07:18:10;;;;;;;0.10;0.10;;;;;;;12.53;84.57;101197.56;5027338;28;20029;-74
2022/11/01 07:20:42;;;;;;;0.10;0.10;;;;;;;12.56;85.27;101210.78;5024428;28;20068;-75
2022/11/01 07:23:15;;;;;;;0.10;0.10;;;;;;;12.54;86.01;101212.75;5022026;28;20043;-74
2022/11/01 07:25:41;;;;;;;0.08;0.08;;;;;;;12.57;85.60;101214.31;4987916;28;20721;-74
2022/11/01 07:28:08;;;;;;;0.10;0.10;;;;;;;12.52;86.29;101221.91;5029678;28;20029;-74
2022/11/01 07:30:34;;;;;;;0.10;0.10;;;;;;;12.62;85.03;101200.47;5000554;28;20031;-75
2022/11/01 07:33:03;;;;;;;0.10;0.10;;;;;;;12.56;85.28;101215.28;5010660;28;20052;-73
2022/11/01 07:35:28;;;;;;;0.00;0.00;;;;;;;12.84;84.06;101240.00;5011922;28;20030;-77
2022/11/01 07:37:58;;;;;;;0.10;0.10;;;;;;;13.02;84.09;101243.88;5033484;28;20103;-73
2022/11/01 07:40:26;;;;;;;0.10;0.10;;;;;;;12.84;83.85;101248.09;5023949;28;20233;-73
2022/11/01 07:42:53;;;;;;;0.10;0.10;;;;;;;12.80;84.13;101243.94;5022715;28;20273;-72
2022/11/01 07:45:18;;;;;;;0.10;0.10;;;;;;;12.59;85.73;101228.53;5023210;28;20087;-71
2022/11/01 07:47:43;;;;;;;0.03;0.03;;;;;;;12.66;85.06;101270.16;5013429;28;20453;-72
2022/11/01 07:50:09;;;;;;;0.00;0.00;;;;;;;12.73;84.90;101265.97;5023687;28;20057;-71
2022/11/01 07:52:34;;;;;;;0.10;0.10;;;;;;;12.68;85.24;101272.72;5017897;28;20461;-70
2022/11/01 07:54:59;;;;;;;0.08;0.08;;;;;;;12.48;84.77;101226.69;5025458;28;20044;-72
2022/11/01 07:57:25;;;;;;;0.10;0.10;;;;;;;12.60;85.23;101257.19;5022855;28;20125;-72
2022/11/01 07:59:50;;;;;;;0.10;0.10;;;;;;;12.69;83.08;101279.81;5010205;28;20037;-75
2022/11/01 08:02:15;;;;;;;0.10;0.10;;;;;;;12.85;83.19;101282.16;5000938;28;20417;-74
2022/11/01 08:04:41;;;;;;;0.10;0.10;;;;;;;12.79;82.57;101279.94;5029168;28;20466;-73
2022/11/01 08:07:06;;;;;;;0.10;0.10;;;;;;;12.90;82.34;101274.56;5010371;28;20067;-73
2022/11/01 08:09:31;;;;;;;0.10;0.10;;;;;;;12.78;81.70;101268.31;5011415;28;20850;-73
2022/11/01 08:11:58;;;;;;;0.10;0.10;;;;;;;12.73;83.40;101270.50;5003791;28;20461;-73
2022/11/01 08:14:23;;;;;;;0.10;0.10;;;;;;;12.80;82.92;101287.03;5023149;28;20032;-75
2022/11/01 08:16:54;;;;;;;0.10;0.10;;;;;;;12.82;81.73;101279.69;5032902;28;20044;-74
2022/11/01 08:19:20;;;;;;;0.10;0.10;;;;;;;12.89;83.00;101297.94;5030665;28;20033;-71
2022/11/01 08:21:46;;;;;;;0.10;0.10;;;;;;;12.90;81.55;101293.41;5014302;28;20037;-80
2022/11/01 08:24:11;;;;;;;0.20;0.20;;;;;;;12.86;81.56;101278.47;5023901;28;20560;-73
2022/11/01 08:26:37;;;;;;;0.10;0.10;;;;;;;13.07;80.76;101291.19;5025007;28;20143;-73
2022/11/01 08:29:02;;;;;;;0.10;0.10;;;;;;;13.13;82.69;101306.88;5027388;28;20025;-75
2022/11/01 08:31:27;;;;;;;0.00;0.00;;;;;;;12.92;82.29;101282.50;5026901;28;21216;-74
2022/11/01 08:33:53;;;;;;;0.10;0.10;;;;;;;13.12;82.59;101315.94;5000083;28;20030;-72
2022/11/01 08:36:20;;;;;;;0.10;0.10;;;;;;;13.11;81.21;101322.31;4996461;28;20037;-74
2022/11/01 08:38:45;;;;;;;0.10;0.10;;;;;;;13.08;81.29;101300.97;5031395;28;20040;-73
2022/11/01 08:41:11;;;;;;;0.10;0.10;;;;;;;13.53;79.72;101327.88;5008525;28;20029;-75
2022/11/01 08:43:36;;;;;;;0.10;0.10;;;;;;;13.48;79.93;101312.09;5031554;28;20457;-75
2022/11/01 08:46:01;;;;;;;0.10;0.10;;;;;;;13.49;80.28;101323.75;5013441;28;20114;-71
2022/11/01 08:48:27;;;;;;;0.10;0.10;;;;;;;13.38;79.76;101315.63;5030263;28;20025;-72
2022/11/01 08:50:52;;;;;;;0.10;0.10;;;;;;;13.24;80.21;101312.25;4997820;28;20033;-75
2022/11/01 08:53:18;;;;;;;0.10;0.10;;;;;;;13.56;80.19;101318.69;4995630;28;20064;-72
2022/11/01 08:55:43;;;;;;;0.10;0.10;;;;;;;13.44;79.35;101302.53;5002928;28;20033;-75
2022/11/01 08:58:09;;;;;;;0.20;0.20;;;;;;;13.47;79.99;101339.19;5010313;28;20084;-71
2022/11/01 09:00:34;;;;;;;0.10;0.10;;;;;;;13.54;78.57;101326.91;5009162;28;20145;-72
2022/11/01 09:03:00;;;;;;;0.10;0.10;;;;;;;13.54;79.58;101321.50;4986045;28;20033;-74
2022/11/01 09:05:27;;;;;;;0.10;0.10;;;;;;;13.43;79.19;101319.69;5005765;28;20060;-75
2022/11/01 09:07:57;;;;;;;0.10;0.10;;;;;;;13.56;78.22;101346.50;5004250;28;20087;-73
2022/11/01 09:10:23;;;;;;;0.10;0.10;;;;;;;13.65;78.67;101332.28;4995102;28;20032;-72
2022/11/01 09:12:48;;;;;;;0.10;0.10;;;;;;;13.74;77.93;101348.69;5018955;28;20033;-70
2022/11/01 09:15:14;;;;;;;0.10;0.10;;;;;;;13.75;78.22;101328.81;5007055;28;20067;-69
2022/11/01 09:17:39;;;;;;;0.10;0.10;;;;;;;13.65;78.13;101329.56;5013721;28;20495;-72
2022/11/01 09:20:05;;;;;;;0.10;0.10;;;;;;;13.91;77.47;101337.31;5031091;28;20080;-76
2022/11/01 09:22:30;;;;;;;0.10;0.10;;;;;;;14.11;76.33;101356.38;5004396;28;20507;-78
2022/11/01 09:24:57;;;;;;;0.10;0.10;;;;;;;14.32;74.98;101345.59;5004260;28;20041;-74
2022/11/01 09:27:23;;;;;;;0.10;0.10;;;;;;;14.14;76.23;101366.91;4997979;28;20068;-74
2022/11/01 09:29:48;;;;;;;0.10;0.10;;;;;;;13.99;76.39;101327.72;5000770;28;20029;-72
2022/11/01 09:32:13;;;;;;;0.20;0.20;;;;;;;14.22;75.79;101369.84;5005449;28;20369;-77
2022/11/01 09:34:39;;;;;;;0.10;0.10;;;;;;;14.51;75.53;101360.19;5007411;28;20433;-73
2022/11/01 09:37:04;;;;;;;0.10;0.10;;;;;;;14.19;76.01;101358.41;4995083;28;20349;-74
2022/11/01 09:39:29;;;;;;;0.10;0.10;;;;;;;14.49;76.91;101356.78;5020020;28;20061;-73
2022/11/01 09:42:01;;;;;;;0.10;0.10;;;;;;;14.31;76.10;101356.50;5009171;28;20674;-73
2022/11/01 09:44:36;;;;;;;0.10;0.10;;;;;;;14.44;76.11;101361.72;5005297;28;20288;-72
2022/11/01 09:47:14;;;;;;;0.10;0.10;;;;;;;14.17;75.36;101382.03;5010989;28;20116;-73
2022/11/01 09:49:43;;;;;;;0.10;0.10;;;;;;;14.16;75.21;101391.09;5005176;28;20029;-72
2022/11/01 09:52:16;;;;;;;0.15;0.15;;;;;;;14.44;75.13;101377.91;4991872;28;20033;-73
2022/11/01 09:54:41;;;;;;;0.10;0.10;;;;;;;14.84;76.36;101388.03;4993157;28;20030;-73
2022/11/01 09:57:13;;;;;;;0.10;0.10;;;;;;;14.62;75.38;101397.97;5027750;28;20290;-72
2022/11/01 09:59:43;;;;;;;0.10;0.10;;;;;;;14.95;75.13;101406.88;5010016;28;20493;-72
2022/11/01 10:02:49;;;;;;;0.10;0.10;;;;;;;15.00;74.56;101423.53;5019030;28;20065;-74
2022/11/01 10:05:32;;;;;;;0.10;0.10;;;;;;;14.82;74.15;101408.94;5006424;28;20033;-74
2022/11/01 10:08:23;;;;;;;0.10;0.10;;;;;;;15.33;72.52;101423.41;5015398;28;20485;-73
2022/11/01 10:11:13;;;;;;;0.17;0.17;;;;;;;15.33;71.68;101426.13;5000962;28;20118;-73
2022/11/01 10:13:52;;;;;;;0.10;0.10;;;;;;;15.56;70.73;101440.28;5024808;28;20040;-72
2022/11/01 10:16:37;;;;;;;0.10;0.10;;;;;;;15.35;71.12;101445.78;5008125;28;20036;-79
2022/11/01 10:19:16;;;;;;;0.10;0.10;;;;;;;15.74;70.61;101443.19;5023224;28;20040;-74
2022/11/01 10:21:51;;;;;;;0.10;0.10;;;;;;;16.01;68.50;101440.84;5002648;28;20036;-70
2022/11/01 10:24:40;;;;;;;0.10;0.10;;;;;;;16.45;68.78;101435.00;5002540;28;20336;-76
2022/11/01 10:27:17;;;;;;;0.10;0.10;;;;;;;16.07;68.99;101428.59;5022828;28;20033;-74
2022/11/01 10:30:02;;;;;;;0.10;0.10;;;;;;;15.42;67.16;101427.16;4994911;28;20038;-72
2022/11/01 10:32:46;;;;;;;0.10;0.10;;;;;;;16.56;66.52;101437.56;5015056;28;20033;-74
2022/11/01 10:35:22;;;;;;;0.10;0.10;;;;;;;16.10;67.01;101445.41;5016124;28;20580;-72
2022/11/01 10:38:02;;;;;;;0.10;0.10;;;;;;;16.30;66.79;101435.44;4999429;28;20433;-75
2022/11/01 10:41:17;;;;;;;0.10;0.10;;;;;;;16.44;68.26;101446.84;5006264;28;20460;-73
2022/11/01 10:43:45;;;;;;;0.10;0.10;;;;;;;16.35;67.18;101432.28;4927630;29;20050;-74
2022/11/01 10:46:16;;;;;;;0.10;0.10;;;;;;;16.73;64.36;101445.94;4949795;28;20471;-73
2022/11/01 10:48:45;;;;;;;0.10;0.10;;;;;;;16.67;64.43;101427.59;4982162;28;20053;-72
2022/11/01 10:51:14;;;;;;;0.10;0.10;;;;;;;17.59;62.98;101447.72;5022059;28;20029;-72
2022/11/01 10:53:46;;;;;;;0.10;0.10;;;;;;;18.26;59.17;101433.00;5004806;28;20030;-71
2022/11/01 10:56:16;;;;;;;0.10;0.10;;;;;;;17.37;64.47;101452.50;5005181;28;20028;-72
2022/11/01 10:58:50;;;;;;;0.10;0.10;;;;;;;17.42;61.97;101445.78;5020126;28;20072;-73
2022/11/01 11:01:20;;;;;;;0.10;0.10;;;;;;;17.01;62.76;101444.22;5000721;28;20036;-75
2022/11/01 11:03:47;;;;;;;0.10;0.10;;;;;;;17.52;60.93;101452.88;5008994;28;20167;-72
2022/11/01 11:06:14;;;;;;;0.10;0.10;;;;;;;17.18;61.00;101445.31;4991475;28;20026;-72
2022/11/01 11:08:41;;;;;;;0.10;0.10;;;;;;;17.13;59.97;101433.19;5015318;28;20028;-73
2022/11/01 11:11:10;;;;;;;0.10;0.10;;;;;;;17.69;60.06;101445.78;5009694;28;20032;-72
2022/11/01 11:13:36;;;;;;;0.10;0.10;;;;;;;18.60;56.27;101443.13;5006859;28;20037;-73
2022/11/01 11:16:04;;;;;;;0.47;0.47;;;;;;;18.51;55.85;101414.19;4990603;28;20429;-76
2022/11/01 11:18:36;;;;;;;0.10;0.10;;;;;;;18.56;55.59;101436.28;5025625;28;20079;-72
2022/11/01 11:21:08;;;;;;;0.10;0.10;;;;;;;18.79;55.73;101449.41;5004348;28;20029;-74
2022/11/01 11:23:40;;;;;;;0.10;0.10;;;;;;;18.93;53.92;101443.38;5005771;28;20473;-73
2022/11/01 11:26:09;;;;;;;0.25;0.25;;;;;;;17.50;59.18;101454.88;5016665;28;20088;-71
2022/11/01 11:28:41;;;;;;;0.10;0.10;;;;;;;17.65;58.82;101438.09;4996568;28;20433;-73
2022/11/01 11:31:24;;;;;;;0.10;0.10;;;;;;;17.72;59.08;101446.47;5028867;28;20481;-75
2022/11/01 11:34:11;;;;;;;0.13;0.13;;;;;;;18.07;58.75;101423.97;5003685;28;20038;-72
2022/11/01 11:36:42;;;;;;;0.10;0.10;;;;;;;17.29;59.27;101427.13;5016781;28;20474;-73